Time;durP1;ratioP1;P1;durP2;ratioP2;P2;SDS_P1;SDS_P2;PMS_P1;PMS_P2;Temp;Humidity;BMP_temperature;BMP_pressure;BME280_temperature;BME280_humidity;BME280_pressure;Samples;Min_cycle;Max_cycle;Signal;HPM_P1;HPM_P2
2021/03/15 00:02:05;;;;;;;1.83;0.32;;;6.60;99.90;;;;;;10238518;28;20047;-53
2021/03/15 00:07:26;;;;;;;0.55;0.17;;;6.50;99.90;;;;;;10237883;28;20031;-53
2021/03/15 00:12:47;;;;;;;4.50;0.45;;;6.50;99.90;;;;;;10228781;29;20036;-53
2021/03/15 00:18:08;;;;;;;0.80;0.43;;;6.60;99.90;;;;;;10199305;29;20038;-53
2021/03/15 00:23:29;;;;;;;1.00;0.40;;;6.60;99.90;;;;;;10230051;29;20028;-53
2021/03/15 00:28:50;;;;;;;0.30;0.20;;;6.60;99.90;;;;;;10239004;29;20022;-53
2021/03/15 00:34:11;;;;;;;0.70;0.20;;;6.50;99.90;;;;;;10237264;29;20027;-53
2021/03/15 00:39:32;;;;;;;1.40;0.82;;;6.50;99.90;;;;;;10238759;29;20047;-53
2021/03/15 00:44:53;;;;;;;4.55;0.25;;;6.50;99.90;;;;;;10209669;29;20745;-53
2021/03/15 00:50:31;;;;;;;4.13;0.20;;;6.60;99.90;;;;;;10235599;29;20046;-53
2021/03/15 00:55:52;;;;;;;0.40;0.20;;;6.50;99.90;;;;;;10238708;28;20514;-53
2021/03/15 01:01:18;;;;;;;0.20;0.00;;;6.50;99.90;;;;;;10238677;28;20146;-53
2021/03/15 01:06:40;;;;;;;0.45;0.15;;;6.40;99.90;;;;;;10237869;29;20502;-53
2021/03/15 01:12:01;;;;;;;0.60;0.35;;;6.50;99.90;;;;;;10209869;29;20118;-53
2021/03/15 01:17:23;;;;;;;0.43;0.20;;;6.50;99.90;;;;;;10206543;29;20035;-53
2021/03/15 01:22:44;;;;;;;0.80;0.32;;;6.50;99.90;;;;;;10226211;29;20044;-53
2021/03/15 01:28:11;;;;;;;1.00;0.20;;;6.50;99.90;;;;;;10244719;29;20127;-54
2021/03/15 01:33:32;;;;;;;0.35;0.20;;;6.40;99.90;;;;;;10213898;29;20036;-54
2021/03/15 01:38:53;;;;;;;1.25;0.50;;;6.40;99.90;;;;;;10243476;29;20038;-54
2021/03/15 01:44:14;;;;;;;1.63;0.40;;;6.40;99.90;;;;;;10228606;28;20020;-54
2021/03/15 01:49:35;;;;;;;0.40;0.17;;;6.40;99.90;;;;;;10243121;29;20463;-54
2021/03/15 01:54:56;;;;;;;2.95;0.40;;;6.30;99.90;;;;;;10242077;29;20031;-53
2021/03/15 02:00:19;;;;;;;1.00;0.32;;;6.30;99.90;;;;;;10244928;29;20039;-54
2021/03/15 02:05:41;;;;;;;0.57;0.30;;;6.30;99.90;;;;;;10237118;28;20039;-54
2021/03/15 02:11:13;;;;;;;1.83;0.40;;;6.30;99.90;;;;;;10225318;28;20640;-54
2021/03/15 02:16:42;;;;;;;1.10;0.98;;;6.20;99.90;;;;;;10238127;29;20147;-53
2021/03/15 02:22:28;;;;;;;1.38;0.50;;;6.20;99.90;;;;;;10240859;28;20439;-54
2021/03/15 02:28:26;;;;;;;2.15;0.70;;;6.10;99.90;;;;;;10231208;29;20222;-54
2021/03/15 02:34:05;;;;;;;0.95;0.43;;;6.00;99.90;;;;;;10232848;28;20203;-54
2021/03/15 02:39:33;;;;;;;0.38;0.17;;;6.00;99.90;;;;;;10243487;28;20058;-54
2021/03/15 02:44:54;;;;;;;1.27;0.40;;;6.00;99.90;;;;;;10242645;28;20027;-54
2021/03/15 02:50:16;;;;;;;9.90;1.38;;;6.00;99.90;;;;;;10240577;29;20041;-54
2021/03/15 02:55:39;;;;;;;6.78;1.70;;;6.00;99.90;;;;;;10225591;29;20036;-54
2021/03/15 03:01:02;;;;;;;3.58;1.95;;;6.10;99.90;;;;;;10229345;28;20070;-54
2021/03/15 03:06:28;;;;;;;3.70;0.95;;;6.20;99.90;;;;;;10242670;28;20530;-53
2021/03/15 03:11:51;;;;;;;2.22;0.75;;;6.10;99.90;;;;;;10240675;29;20031;-53
2021/03/15 03:17:13;;;;;;;5.60;1.20;;;6.10;99.90;;;;;;10234601;28;20040;-54
2021/03/15 03:22:38;;;;;;;9.20;1.20;;;6.00;99.90;;;;;;10204670;29;20471;-53
2021/03/15 03:28:01;;;;;;;1.73;0.80;;;6.10;99.90;;;;;;10232908;29;20750;-54
2021/03/15 03:33:22;;;;;;;2.88;0.75;;;6.10;99.90;;;;;;10238243;29;20032;-53
2021/03/15 03:38:44;;;;;;;2.03;0.73;;;6.10;99.90;;;;;;10236967;28;20032;-53
2021/03/15 03:44:12;;;;;;;1.65;1.02;;;6.20;99.90;;;;;;10219686;29;20494;-53
2021/03/15 03:49:33;;;;;;;2.83;0.98;;;6.20;99.90;;;;;;10239073;29;20066;-53
2021/03/15 03:54:59;;;;;;;3.65;0.82;;;6.10;99.90;;;;;;10239187;28;20399;-54
2021/03/15 04:00:21;;;;;;;6.47;0.95;;;6.20;99.90;;;;;;10231150;29;20411;-53
2021/03/15 04:05:47;;;;;;;3.30;1.77;;;6.20;99.90;;;;;;10207190;28;20560;-53
2021/03/15 04:11:11;;;;;;;2.58;0.98;;;6.20;99.90;;;;;;10240102;28;20043;-54
2021/03/15 04:16:41;;;;;;;4.65;1.25;;;6.20;99.90;;;;;;10237178;29;20043;-53
2021/03/15 04:22:09;;;;;;;4.70;0.95;;;6.20;99.90;;;;;;10231474;29;20039;-53
2021/03/15 04:27:31;;;;;;;11.52;1.27;;;6.30;99.90;;;;;;10229142;29;20038;-53
2021/03/15 04:32:54;;;;;;;2.83;1.15;;;6.20;99.90;;;;;;10221447;29;20102;-53
2021/03/15 04:38:15;;;;;;;9.18;2.08;;;6.20;99.90;;;;;;10236625;29;20043;-53
2021/03/15 04:43:38;;;;;;;3.08;0.93;;;6.30;99.90;;;;;;10234191;29;20047;-53
2021/03/15 04:49:06;;;;;;;1.65;0.77;;;6.30;99.90;;;;;;10238283;28;20034;-53
2021/03/15 04:54:28;;;;;;;5.18;1.48;;;6.30;99.90;;;;;;10238254;28;20388;-53
2021/03/15 04:59:50;;;;;;;3.63;1.52;;;6.30;99.90;;;;;;10211136;29;20051;-53
2021/03/15 05:05:15;;;;;;;4.43;1.75;;;6.30;99.90;;;;;;10237067;28;20402;-53
2021/03/15 05:10:37;;;;;;;2.78;0.88;;;6.20;99.90;;;;;;10225394;29;20045;-53
2021/03/15 05:15:59;;;;;;;4.40;1.05;;;6.30;99.90;;;;;;10212946;29;20040;-53
2021/03/15 05:21:23;;;;;;;4.68;1.23;;;6.30;99.90;;;;;;10230699;29;20039;-53
2021/03/15 05:26:44;;;;;;;4.97;0.70;;;6.20;99.90;;;;;;10237986;29;20112;-53
2021/03/15 05:32:06;;;;;;;2.95;0.82;;;6.10;99.90;;;;;;10237936;29;20442;-53
2021/03/15 05:37:28;;;;;;;2.15;1.10;;;6.10;99.90;;;;;;10221062;29;20135;-53
2021/03/15 05:43:12;;;;;;;16.90;3.17;;;6.00;99.90;;;;;;10218044;28;20040;-53
2021/03/15 05:49:11;;;;;;;7.10;0.90;;;5.90;99.90;;;;;;10234910;28;20035;-54
2021/03/15 05:54:53;;;;;;;5.28;1.27;;;5.90;99.90;;;;;;10237393;29;20430;-53
2021/03/15 06:00:34;;;;;;;6.13;1.48;;;5.90;99.90;;;;;;10239276;28;20118;-53
2021/03/15 06:06:01;;;;;;;2.38;0.90;;;5.80;99.90;;;;;;10244353;29;20035;-53
2021/03/15 06:11:27;;;;;;;3.60;0.73;;;5.80;99.90;;;;;;10242754;29;20028;-53
2021/03/15 06:16:48;;;;;;;0.88;0.65;;;5.70;99.90;;;;;;10242739;28;20031;-52
2021/03/15 06:22:10;;;;;;;4.25;0.40;;;5.70;99.90;;;;;;10234333;29;20554;-53
2021/03/15 06:27:32;;;;;;;1.13;0.30;;;5.60;99.90;;;;;;10227695;29;20098;-53
2021/03/15 06:32:56;;;;;;;7.13;0.95;;;5.60;99.90;;;;;;10233253;29;20032;-53
2021/03/15 06:38:17;;;;;;;2.17;0.30;;;5.60;99.90;;;;;;10241302;28;20031;-53
2021/03/15 06:43:39;;;;;;;4.30;0.40;;;5.70;99.90;;;;;;10241469;28;20055;-53
2021/03/15 06:49:00;;;;;;;8.52;0.52;;;5.80;99.90;;;;;;10240027;28;20023;-53
2021/03/15 06:54:25;;;;;;;0.77;0.30;;;5.90;99.90;;;;;;10240741;29;20419;-53
2021/03/15 06:59:49;;;;;;;2.05;0.30;;;6.00;99.90;;;;;;10242312;29;20043;-53
2021/03/15 07:05:13;;;;;;;2.05;0.90;;;6.10;99.90;;;;;;10224845;28;20028;-53
2021/03/15 07:10:34;;;;;;;2.10;1.30;;;6.20;99.90;;;;;;10215314;28;20063;-53
2021/03/15 07:15:55;;;;;;;6.68;0.70;;;6.20;99.90;;;;;;10239553;29;20027;-53
2021/03/15 07:21:30;;;;;;;6.50;1.50;;;6.30;99.90;;;;;;10231312;29;20035;-53
2021/03/15 07:26:53;;;;;;;2.85;1.02;;;6.40;99.90;;;;;;10230533;29;20031;-53
2021/03/15 07:32:38;;;;;;;2.05;0.73;;;6.60;99.90;;;;;;10219804;29;20391;-53
2021/03/15 07:37:59;;;;;;;6.47;0.80;;;6.70;99.90;;;;;;10229900;29;20043;-53
2021/03/15 07:43:27;;;;;;;2.78;0.70;;;6.70;99.90;;;;;;10201847;29;20038;-53
2021/03/15 07:48:49;;;;;;;3.78;0.77;;;6.90;99.90;;;;;;10239166;28;20156;-53
2021/03/15 07:54:10;;;;;;;4.05;0.68;;;7.00;99.90;;;;;;10189171;29;20067;-53
2021/03/15 07:59:32;;;;;;;2.42;0.47;;;6.90;99.90;;;;;;10232533;29;20047;-53
2021/03/15 08:04:55;;;;;;;1.35;0.30;;;6.90;99.90;;;;;;10238048;29;20086;-53
2021/03/15 08:10:16;;;;;;;9.20;0.40;;;6.70;99.90;;;;;;10240509;28;20059;-53
2021/03/15 08:15:39;;;;;;;1.60;0.35;;;6.80;99.90;;;;;;10240068;28;20039;-53
2021/03/15 08:21:08;;;;;;;6.07;2.10;;;6.90;99.90;;;;;;10233643;28;20027;-53
2021/03/15 08:26:31;;;;;;;5.43;0.30;;;7.10;99.90;;;;;;10203701;29;20475;-53
2021/03/15 08:31:55;;;;;;;6.15;0.55;;;7.30;99.90;;;;;;10213558;28;20034;-53
2021/03/15 08:37:55;;;;;;;2.65;0.90;;;7.60;99.90;;;;;;10238199;29;20409;-53
2021/03/15 08:43:22;;;;;;;2.75;0.50;;;7.70;99.90;;;;;;10217843;29;20041;-53
2021/03/15 08:48:49;;;;;;;1.17;0.40;;;7.50;99.90;;;;;;10239265;28;20031;-53
2021/03/15 08:54:10;;;;;;;0.55;0.20;;;7.40;99.90;;;;;;10238509;29;20043;-53
2021/03/15 08:59:33;;;;;;;0.47;0.10;;;7.20;99.90;;;;;;10237047;29;20487;-53
2021/03/15 09:04:54;;;;;;;1.17;0.88;;;7.20;99.90;;;;;;10225210;28;20063;-53
2021/03/15 09:10:24;;;;;;;2.58;0.30;;;7.40;99.90;;;;;;10214318;29;20075;-53
2021/03/15 09:15:56;;;;;;;0.52;0.30;;;7.40;99.90;;;;;;10233082;29;20028;-53
2021/03/15 09:21:23;;;;;;;0.85;0.30;;;7.60;99.90;;;;;;10199747;28;20043;-53
2021/03/15 09:26:44;;;;;;;0.55;0.20;;;7.60;99.90;;;;;;10233640;29;20045;-53
2021/03/15 09:32:11;;;;;;;1.80;0.30;;;7.60;99.90;;;;;;10235664;29;20031;-53
2021/03/15 09:37:32;;;;;;;7.13;0.90;;;7.80;99.90;;;;;;10237995;29;20035;-53
2021/03/15 09:42:54;;;;;;;4.95;0.22;;;8.00;99.90;;;;;;10230467;29;20479;-53
2021/03/15 09:48:20;;;;;;;2.25;0.22;;;8.00;99.90;;;;;;10198705;29;20123;-53
2021/03/15 09:53:43;;;;;;;1.60;0.20;;;8.00;99.90;;;;;;10244209;28;20107;-53
2021/03/15 09:59:11;;;;;;;1.20;0.35;;;8.00;99.90;;;;;;10244800;29;20118;-53
2021/03/15 10:04:33;;;;;;;1.95;0.28;;;7.90;99.90;;;;;;10244636;29;20597;-53
2021/03/15 10:09:54;;;;;;;5.47;2.28;;;8.00;99.90;;;;;;10240451;28;20040;-53
2021/03/15 10:15:19;;;;;;;2.70;1.52;;;8.00;99.90;;;;;;10205127;28;20488;-53
2021/03/15 10:20:40;;;;;;;1.80;0.10;;;8.10;99.90;;;;;;10242519;29;20035;-53
2021/03/15 10:26:05;;;;;;;0.60;0.28;;;8.30;99.90;;;;;;10243340;29;20063;-53
2021/03/15 10:31:26;;;;;;;2.38;1.05;;;8.40;99.90;;;;;;10241744;29;20392;-53
2021/03/15 10:36:47;;;;;;;1.13;0.30;;;8.50;99.90;;;;;;10241455;29;20106;-53
2021/03/15 10:42:08;;;;;;;0.30;0.10;;;8.30;99.90;;;;;;10204694;29;20048;-53
2021/03/15 10:47:34;;;;;;;1.90;0.70;;;8.40;99.90;;;;;;10240571;28;20083;-53
2021/03/15 10:52:55;;;;;;;2.35;0.55;;;8.50;99.90;;;;;;10240901;29;20042;-53
2021/03/15 10:58:18;;;;;;;1.13;0.40;;;8.70;99.90;;;;;;10243483;28;20490;-53
2021/03/15 11:03:40;;;;;;;2.55;0.40;;;8.70;99.90;;;;;;10242243;29;20047;-53
2021/03/15 11:09:01;;;;;;;3.83;0.50;;;9.00;99.90;;;;;;10243207;28;20063;-53
2021/03/15 11:14:22;;;;;;;2.97;1.25;;;9.20;99.90;;;;;;10236285;29;20039;-53
2021/03/15 11:19:51;;;;;;;3.60;0.55;;;9.10;99.90;;;;;;10212755;29;20819;-53
2021/03/15 11:25:13;;;;;;;0.52;0.30;;;9.00;99.90;;;;;;10239906;28;20045;-53
2021/03/15 11:30:36;;;;;;;4.07;1.05;;;8.90;99.90;;;;;;10230236;29;20028;-53
2021/03/15 11:36:00;;;;;;;3.60;0.38;;;8.90;99.90;;;;;;10239832;29;20028;-53
2021/03/15 11:41:25;;;;;;;2.78;0.50;;;9.10;99.90;;;;;;10240619;28;20519;-53
2021/03/15 11:46:46;;;;;;;0.63;0.32;;;8.80;99.90;;;;;;10238989;28;20035;-54
2021/03/15 11:52:07;;;;;;;1.90;0.98;;;8.40;99.90;;;;;;10240097;29;20035;-53
2021/03/15 11:57:28;;;;;;;3.13;0.30;;;8.00;99.90;;;;;;10237891;28;20027;-53
2021/03/15 12:02:51;;;;;;;5.68;0.30;;;8.10;99.90;;;;;;10237391;29;20553;-53
2021/03/15 12:08:12;;;;;;;4.38;0.30;;;9.40;99.90;;;;;;10231148;29;20119;-55
2021/03/15 12:13:33;;;;;;;3.00;0.40;;;10.80;99.90;;;;;;10218972;29;20028;-55
2021/03/15 12:18:55;;;;;;;3.13;1.20;;;10.30;99.90;;;;;;10238235;29;20483;-55
2021/03/15 12:24:16;;;;;;;1.65;0.63;;;9.80;99.90;;;;;;10210530;29;20392;-54
2021/03/15 12:29:37;;;;;;;5.32;0.88;;;9.90;99.90;;;;;;10238227;29;20112;-55
2021/03/15 12:34:58;;;;;;;1.60;0.30;;;9.50;99.90;;;;;;10221816;28;20252;-54
2021/03/15 12:40:19;;;;;;;5.22;0.80;;;9.80;99.90;;;;;;10237767;29;20474;-55
2021/03/15 12:45:40;;;;;;;4.68;0.73;;;9.40;99.90;;;;;;10202604;29;20314;-54
2021/03/15 12:51:02;;;;;;;2.03;0.20;;;9.00;99.90;;;;;;10236753;29;20043;-54
2021/03/15 12:56:23;;;;;;;8.15;0.70;;;8.80;99.90;;;;;;10238745;28;20047;-56
2021/03/15 13:01:44;;;;;;;3.05;1.15;;;9.00;99.90;;;;;;10237465;29;20062;-54
2021/03/15 13:07:05;;;;;;;4.00;0.57;;;9.00;99.90;;;;;;10234034;29;20640;-54
2021/03/15 13:12:26;;;;;;;1.63;0.50;;;8.80;99.90;;;;;;10221937;28;20450;-54
2021/03/15 13:17:52;;;;;;;22.92;1.25;;;8.90;99.90;;;;;;10239543;29;20044;-54
2021/03/15 13:23:13;;;;;;;1.65;0.73;;;9.10;99.90;;;;;;10214571;28;20036;-54
2021/03/15 13:28:34;;;;;;;2.33;0.38;;;9.30;99.90;;;;;;10218973;29;20046;-54
2021/03/15 13:33:55;;;;;;;3.08;0.30;;;10.10;99.90;;;;;;10243760;29;20447;-54
2021/03/15 13:39:16;;;;;;;1.65;0.52;;;9.40;99.90;;;;;;10242979;29;20091;-54
2021/03/15 13:44:37;;;;;;;2.95;0.40;;;9.00;99.90;;;;;;10208617;29;20024;-54
2021/03/15 13:49:58;;;;;;;5.75;1.33;;;8.90;99.90;;;;;;10240812;29;20023;-54
2021/03/15 13:55:19;;;;;;;3.72;1.23;;;8.70;99.90;;;;;;10243452;29;20504;-54
2021/03/15 14:00:40;;;;;;;4.15;0.60;;;8.90;99.90;;;;;;10243904;29;20078;-54
2021/03/15 14:06:01;;;;;;;4.38;0.50;;;9.20;99.90;;;;;;10236937;28;20655;-54
2021/03/15 14:11:22;;;;;;;6.13;1.02;;;9.20;99.90;;;;;;10242704;29;20471;-54
2021/03/15 14:16:46;;;;;;;1.98;0.45;;;8.80;99.90;;;;;;10242201;29;20113;-54
2021/03/15 14:22:07;;;;;;;5.97;1.42;;;8.70;99.90;;;;;;10237372;28;20507;-54
2021/03/15 14:27:28;;;;;;;0.93;0.55;;;9.00;99.90;;;;;;10242627;29;20692;-54
2021/03/15 14:32:49;;;;;;;3.30;1.30;;;9.00;99.90;;;;;;10229307;28;20036;-54
2021/03/15 14:38:10;;;;;;;4.22;1.17;;;8.80;99.90;;;;;;10241550;29;20090;-54
2021/03/15 14:43:31;;;;;;;1.75;0.70;;;8.60;99.90;;;;;;10242185;28;20043;-54
2021/03/15 14:48:52;;;;;;;2.45;0.38;;;8.60;99.90;;;;;;10241891;28;20043;-54
2021/03/15 14:54:13;;;;;;;3.10;0.38;;;8.50;99.90;;;;;;10240720;29;20561;-54
2021/03/15 14:59:35;;;;;;;4.63;1.30;;;8.40;99.90;;;;;;10241759;29;20047;-54
2021/03/15 15:04:55;;;;;;;7.25;1.27;;;9.00;99.90;;;;;;10226559;29;20031;-54
2021/03/15 15:10:18;;;;;;;3.10;0.57;;;9.20;99.90;;;;;;10241169;29;20020;-54
2021/03/15 15:15:39;;;;;;;6.28;1.17;;;9.50;99.90;;;;;;10202836;29;20122;-54
2021/03/15 15:21:01;;;;;;;2.15;1.40;;;9.30;99.90;;;;;;10239546;28;20035;-54
2021/03/15 15:26:22;;;;;;;6.90;0.47;;;9.00;99.90;;;;;;10229499;29;20395;-54
2021/03/15 15:31:43;;;;;;;4.18;1.33;;;8.70;99.90;;;;;;10215139;29;20042;-54
2021/03/15 15:37:04;;;;;;;1.63;0.45;;;8.90;99.90;;;;;;10239140;29;20035;-54
2021/03/15 15:42:25;;;;;;;5.93;0.70;;;9.00;99.90;;;;;;10215687;28;20058;-54
2021/03/15 15:47:46;;;;;;;2.72;0.60;;;9.00;99.90;;;;;;10222765;28;20031;-54
2021/03/15 15:53:07;;;;;;;1.65;0.25;;;9.10;99.90;;;;;;10239754;29;20099;-55
2021/03/15 15:58:36;;;;;;;4.53;0.38;;;9.00;99.90;;;;;;10478037;28;20962;-54
2021/03/15 16:03:57;;;;;;;1.75;0.35;;;8.70;99.90;;;;;;10449475;28;20106;-54
2021/03/15 16:09:18;;;;;;;3.70;0.73;;;8.60;99.90;;;;;;10436618;28;20037;-54
2021/03/15 16:14:38;;;;;;;3.08;0.45;;;8.50;99.90;;;;;;10444927;28;20029;-54
2021/03/15 16:19:59;;;;;;;2.75;0.88;;;8.30;99.90;;;;;;10475337;28;20137;-54
2021/03/15 16:25:20;;;;;;;2.83;0.65;;;8.20;99.90;;;;;;10478067;28;20535;-54
2021/03/15 16:30:41;;;;;;;1.05;0.50;;;8.20;99.90;;;;;;10476841;28;20044;-54
2021/03/15 16:36:03;;;;;;;4.78;0.75;;;8.20;99.90;;;;;;10474819;28;20052;-53
2021/03/15 16:41:25;;;;;;;3.17;0.52;;;8.10;99.90;;;;;;10476633;28;20511;-54
2021/03/15 16:46:46;;;;;;;8.05;0.98;;;8.10;99.90;;;;;;10476220;28;20043;-54
2021/03/15 16:52:07;;;;;;;3.20;1.30;;;8.20;99.90;;;;;;10477440;28;20116;-54
2021/03/15 16:57:28;;;;;;;1.33;0.40;;;8.10;99.90;;;;;;10477053;28;20531;-54
2021/03/15 17:02:49;;;;;;;1.33;0.60;;;7.90;99.90;;;;;;10476231;28;20087;-54
2021/03/15 17:08:10;;;;;;;10.13;0.60;;;7.70;99.90;;;;;;10457999;28;20064;-54
2021/03/15 17:13:33;;;;;;;3.47;0.75;;;7.60;99.90;;;;;;10449644;28;20041;-54
2021/03/15 17:18:54;;;;;;;1.92;0.90;;;7.60;99.90;;;;;;10444851;28;20226;-54
2021/03/15 17:24:15;;;;;;;4.35;1.52;;;7.60;99.90;;;;;;10446072;28;20084;-54
2021/03/15 17:29:36;;;;;;;1.48;0.93;;;7.60;99.90;;;;;;10448427;28;20044;-54
2021/03/15 17:34:57;;;;;;;2.78;0.32;;;7.60;99.90;;;;;;10446362;28;20064;-54
2021/03/15 17:40:18;;;;;;;5.20;0.55;;;7.60;99.90;;;;;;10443882;28;20108;-54
2021/03/15 17:45:39;;;;;;;7.78;0.93;;;7.60;99.90;;;;;;10408343;28;20079;-54
2021/03/15 17:51:00;;;;;;;7.40;2.22;;;7.50;99.90;;;;;;10445213;28;20408;-54
2021/03/15 17:56:21;;;;;;;3.88;0.50;;;7.40;99.90;;;;;;10445830;28;20053;-54
2021/03/15 18:01:42;;;;;;;4.60;1.75;;;7.50;99.90;;;;;;10446053;28;20037;-54
2021/03/15 18:07:03;;;;;;;11.95;2.60;;;7.40;99.90;;;;;;10439491;28;20032;-54
2021/03/15 18:12:24;;;;;;;5.72;1.95;;;7.40;99.90;;;;;;10447403;28;20056;-54
2021/03/15 18:17:47;;;;;;;2.70;0.98;;;7.40;99.90;;;;;;10443554;28;20044;-54
2021/03/15 18:23:08;;;;;;;7.82;1.10;;;7.30;99.90;;;;;;10446536;28;20484;-54
2021/03/15 18:28:29;;;;;;;3.65;0.70;;;7.20;99.90;;;;;;10446252;28;20463;-54
2021/03/15 18:33:50;;;;;;;3.88;1.30;;;7.30;99.90;;;;;;10444040;28;20404;-54
2021/03/15 18:39:11;;;;;;;7.55;0.60;;;7.20;99.90;;;;;;10445324;28;20021;-54
2021/03/15 18:44:32;;;;;;;1.58;0.70;;;7.20;99.90;;;;;;10442994;28;20044;-54
2021/03/15 18:49:53;;;;;;;3.03;0.70;;;7.30;99.90;;;;;;10443970;28;20440;-54
2021/03/15 18:55:15;;;;;;;7.75;1.52;;;7.30;99.90;;;;;;10426741;28;20097;-54
2021/03/15 19:00:35;;;;;;;1.90;0.93;;;7.30;99.90;;;;;;10437010;28;20319;-54
2021/03/15 19:05:56;;;;;;;2.90;1.30;;;7.30;99.90;;;;;;10443841;28;20086;-54
2021/03/15 19:11:17;;;;;;;10.48;0.80;;;7.20;99.90;;;;;;10426005;28;20033;-54
2021/03/15 19:16:38;;;;;;;4.10;1.58;;;7.20;99.90;;;;;;10442753;28;20033;-54
2021/03/15 19:21:59;;;;;;;6.68;0.75;;;7.20;99.90;;;;;;10434602;28;20033;-54
2021/03/15 19:27:20;;;;;;;3.40;0.70;;;7.10;99.90;;;;;;10431512;28;20052;-54
2021/03/15 19:32:41;;;;;;;2.58;0.95;;;7.10;99.90;;;;;;10442084;28;20041;-54
2021/03/15 19:38:02;;;;;;;3.72;0.68;;;7.10;99.90;;;;;;10442595;28;20625;-54
2021/03/15 19:43:23;;;;;;;11.23;1.95;;;7.10;99.90;;;;;;10442366;28;20044;-54
2021/03/15 19:48:44;;;;;;;2.58;0.63;;;7.10;99.90;;;;;;10442119;28;20456;-54
2021/03/15 19:54:06;;;;;;;4.40;0.85;;;7.10;99.90;;;;;;10425734;28;20407;-54
2021/03/15 19:59:27;;;;;;;4.40;0.60;;;7.00;99.90;;;;;;10441653;28;20098;-54
2021/03/15 20:04:48;;;;;;;8.32;1.67;;;7.00;99.90;;;;;;10441576;28;20388;-53
2021/03/15 20:10:11;;;;;;;5.65;0.75;;;7.00;99.90;;;;;;10439466;28;20029;-54
2021/03/15 20:15:32;;;;;;;4.45;0.63;;;7.00;99.90;;;;;;10440791;28;20560;-54
2021/03/15 20:20:54;;;;;;;3.75;0.65;;;7.00;99.90;;;;;;10441987;28;20041;-54
2021/03/15 20:26:16;;;;;;;1.60;0.40;;;7.10;99.90;;;;;;10441008;28;20044;-54
2021/03/15 20:31:37;;;;;;;4.32;2.38;;;7.10;99.90;;;;;;10428302;28;20128;-54
2021/03/15 20:36:58;;;;;;;3.20;0.30;;;7.00;99.90;;;;;;10416910;28;20045;-54
2021/03/15 20:42:19;;;;;;;5.05;0.60;;;7.00;99.90;;;;;;10443750;28;20493;-54
2021/03/15 20:47:40;;;;;;;10.93;4.43;;;6.90;99.90;;;;;;10448134;28;20112;-54
2021/03/15 20:53:01;;;;;;;14.50;4.70;;;7.00;99.90;;;;;;10448356;28;20033;-54
2021/03/15 20:58:23;;;;;;;5.70;0.88;;;7.00;99.90;;;;;;10448868;28;20538;-54
2021/03/15 21:03:44;;;;;;;6.50;1.35;;;7.10;99.90;;;;;;10437675;28;20120;-54
2021/03/15 21:09:05;;;;;;;4.30;1.40;;;7.00;99.90;;;;;;10447136;28;20033;-54
2021/03/15 21:14:26;;;;;;;2.90;1.52;;;7.10;99.90;;;;;;10444445;28;20504;-54
2021/03/15 21:19:47;;;;;;;4.45;0.85;;;7.10;99.90;;;;;;10445224;28;20485;-54
2021/03/15 21:25:09;;;;;;;4.35;1.00;;;7.00;99.90;;;;;;10447017;28;20535;-53
2021/03/15 21:30:33;;;;;;;2.75;0.70;;;7.10;99.90;;;;;;10406523;28;20076;-53
2021/03/15 21:35:53;;;;;;;3.67;0.50;;;7.00;99.90;;;;;;10444041;28;20195;-54
2021/03/15 21:41:14;;;;;;;2.13;0.88;;;7.10;99.90;;;;;;10446003;28;20033;-54
2021/03/15 21:46:36;;;;;;;4.60;0.82;;;7.00;99.90;;;;;;10421313;28;20048;-53
2021/03/15 21:51:57;;;;;;;1.67;0.52;;;7.00;99.90;;;;;;10445894;28;20403;-54
2021/03/15 21:57:18;;;;;;;1.88;0.60;;;7.10;99.90;;;;;;10445755;28;20373;-54
2021/03/15 22:02:41;;;;;;;5.38;0.50;;;7.10;99.90;;;;;;10418337;28;20069;-54
2021/03/15 22:08:02;;;;;;;11.70;0.75;;;7.10;99.90;;;;;;10407454;28;20045;-54
2021/03/15 22:13:23;;;;;;;1.10;0.68;;;7.00;99.90;;;;;;10446570;28;20053;-54
2021/03/15 22:18:44;;;;;;;1.95;0.73;;;7.00;99.90;;;;;;10444126;28;20371;-54
2021/03/15 22:24:06;;;;;;;3.20;0.50;;;7.00;99.90;;;;;;10442153;28;20128;-54
2021/03/15 22:29:27;;;;;;;8.63;0.95;;;7.00;99.90;;;;;;10405480;28;20061;-54
2021/03/15 22:34:48;;;;;;;5.57;1.63;;;7.10;99.90;;;;;;10443479;28;20133;-54
2021/03/15 22:40:09;;;;;;;8.60;0.65;;;7.10;99.90;;;;;;10444471;28;20174;-54
2021/03/15 22:45:30;;;;;;;6.00;1.45;;;6.90;99.90;;;;;;10444008;28;20099;-54
2021/03/15 22:50:51;;;;;;;3.95;0.63;;;6.90;99.90;;;;;;10441023;28;20076;-54
2021/03/15 22:56:12;;;;;;;8.65;0.47;;;7.00;99.90;;;;;;10444496;28;20051;-54
2021/03/15 23:01:34;;;;;;;2.20;0.50;;;6.90;99.90;;;;;;10444956;28;20512;-54
2021/03/15 23:06:55;;;;;;;3.45;0.25;;;6.90;99.90;;;;;;10442438;28;20039;-54
2021/03/15 23:12:16;;;;;;;4.18;0.52;;;6.90;99.90;;;;;;10443367;28;20041;-54
2021/03/15 23:17:37;;;;;;;8.30;0.52;;;6.90;99.90;;;;;;10441674;28;20036;-54
2021/03/15 23:22:58;;;;;;;4.85;0.70;;;6.90;99.90;;;;;;10407579;28;20033;-53
2021/03/15 23:28:29;;;;;;;10.13;0.28;;;6.80;99.90;;;;;;10403082;28;20463;-53
2021/03/15 23:33:51;;;;;;;3.78;1.00;;;6.90;99.90;;;;;;10441480;28;20035;-54
2021/03/15 23:39:12;;;;;;;2.85;0.43;;;6.80;99.90;;;;;;10443505;28;20036;-54
2021/03/15 23:44:33;;;;;;;3.15;1.13;;;6.70;99.90;;;;;;10418247;28;20052;-54
2021/03/15 23:49:54;;;;;;;6.88;1.00;;;6.80;99.90;;;;;;10400553;28;20462;-54
2021/03/15 23:55:15;;;;;;;2.42;0.90;;;6.80;99.90;;;;;;10441112;28;20040;-54
